Terminal Aerodrome Forecast
Issued by NWS

Home | Current Version | Previous Version | Graphics & Text | Print | Product List | Glossary On
Versions: 1 2 3 4 5 6 7 8 9 10 11 12 13 14 15 16 17 18
880
FTUS43 KIWX 022335
TAFSBN
TAF
KSBN 022335Z 0300/0324 15012G20KT P6SM -SHRA OVC018 WS020/18055KT
      TEMPO 0301/0304 2SM TSRA OVC008CB
     FM030400 20007KT 5SM BR OVC008
     FM030800 22010KT P6SM SCT015
     FM031500 23020G29KT P6SM -SHSN OVC025=

USA.gov is the U.S. government's official web portal to all federal, state and local government web resources and services.